Time;durP1;ratioP1;P1;durP2;ratioP2;P2;SDS_P1;SDS_P2;PMS_P1;PMS_P2;Temp;Humidity;BMP_temperature;BMP_pressure;BME280_temperature;BME280_humidity;BME280_pressure;Samples;Min_cycle;Max_cycle;Signal;HPM_P1;HPM_P2
2023/01/26 00:00:45;;;;;;;24.13;13.35;;;;;;;;;;5025808;28;20455;-48
2023/01/26 00:03:11;;;;;;;23.20;12.13;;;;;;;;;;5025055;28;20113;-48
2023/01/26 00:05:37;;;;;;;25.83;12.85;;;;;;;;;;5022930;28;20041;-52
2023/01/26 00:08:04;;;;;;;25.58;13.80;;;;;;;;;;5025946;28;20415;-50
2023/01/26 00:10:30;;;;;;;25.25;12.68;;;;;;;;;;5025261;28;20067;-51
2023/01/26 00:12:56;;;;;;;22.30;12.32;;;;;;;;;;5025222;28;20033;-51
2023/01/26 00:15:22;;;;;;;22.38;12.35;;;;;;;;;;5025672;28;20032;-52
2023/01/26 00:17:51;;;;;;;20.48;11.45;;;;;;;;;;5043158;28;20060;-47
2023/01/26 00:20:17;;;;;;;24.17;12.45;;;;;;;;;;5044674;28;20075;-50
2023/01/26 00:22:43;;;;;;;24.48;12.55;;;;;;;;;;5045082;28;20388;-52
2023/01/26 00:25:10;;;;;;;20.65;11.35;;;;;;;;;;5044785;28;20025;-50
2023/01/26 00:27:37;;;;;;;22.45;12.32;;;;;;;;;;5045188;28;20574;-49
2023/01/26 00:30:03;;;;;;;22.80;11.85;;;;;;;;;;5045436;28;20025;-48
2023/01/26 00:32:30;;;;;;;19.95;11.77;;;;;;;;;;5045529;28;20083;-49
2023/01/26 00:34:56;;;;;;;16.38;9.82;;;;;;;;;;5044564;28;20495;-52
2023/01/26 00:37:22;;;;;;;17.52;9.93;;;;;;;;;;5044011;28;20036;-51
2023/01/26 00:39:48;;;;;;;18.05;10.00;;;;;;;;;;5044543;28;20079;-52
2023/01/26 00:42:14;;;;;;;13.25;8.07;;;;;;;;;;5044163;28;20025;-51
2023/01/26 00:44:42;;;;;;;15.27;8.80;;;;;;;;;;5044623;28;20218;-49
2023/01/26 00:47:11;;;;;;;14.18;8.68;;;;;;;;;;5043943;28;20048;-51
2023/01/26 00:49:37;;;;;;;14.77;8.38;;;;;;;;;;5044128;28;20245;-48
2023/01/26 00:52:03;;;;;;;14.85;9.70;;;;;;;;;;5044739;28;20036;-51
2023/01/26 00:54:29;;;;;;;17.48;11.20;;;;;;;;;;5044746;28;20029;-53
2023/01/26 00:56:55;;;;;;;18.17;11.05;;;;;;;;;;5044417;28;20081;-50
2023/01/26 00:59:22;;;;;;;17.45;11.45;;;;;;;;;;5044260;28;20067;-52
2023/01/26 01:01:48;;;;;;;15.35;10.02;;;;;;;;;;5044718;28;20029;-53
2023/01/26 01:04:14;;;;;;;18.70;11.30;;;;;;;;;;5044562;28;20062;-52
2023/01/26 06:11:13;;;;;;;14.10;7.88;;;;;;;;;;5042865;28;20095;-50
2023/01/26 06:13:39;;;;;;;12.20;7.18;;;;;;;;;;5047653;28;20036;-48
2023/01/26 06:16:06;;;;;;;13.68;7.47;;;;;;;;;;5048147;28;20028;-51
2023/01/26 06:18:32;;;;;;;13.40;7.53;;;;;;;;;;5032501;28;20488;-50
2023/01/26 06:20:59;;;;;;;12.60;7.18;;;;;;;;;;5027426;28;20026;-51
2023/01/26 06:23:26;;;;;;;14.40;8.20;;;;;;;;;;5027713;28;20029;-50
2023/01/26 06:25:52;;;;;;;13.27;7.65;;;;;;;;;;5027616;28;20541;-49
2023/01/26 06:28:19;;;;;;;12.55;7.43;;;;;;;;;;5027662;28;20056;-47
2023/01/26 06:30:45;;;;;;;15.48;8.75;;;;;;;;;;5027014;28;20025;-51
2023/01/26 06:33:11;;;;;;;16.17;8.50;;;;;;;;;;5019001;28;20447;-48
2023/01/26 06:35:37;;;;;;;15.18;8.30;;;;;;;;;;5019945;28;20052;-52
2023/01/26 06:38:04;;;;;;;15.68;8.10;;;;;;;;;;5031798;28;20045;-51
2023/01/26 06:40:30;;;;;;;15.45;8.13;;;;;;;;;;5030176;28;20035;-52
2023/01/26 06:42:56;;;;;;;15.80;8.13;;;;;;;;;;5050842;28;20051;-51
2023/01/26 06:45:22;;;;;;;14.15;7.97;;;;;;;;;;5044132;28;20021;-51
2023/01/26 06:47:50;;;;;;;15.00;8.18;;;;;;;;;;5022792;28;20521;-52
2023/01/26 06:50:19;;;;;;;15.70;8.93;;;;;;;;;;5011504;28;20564;-49
2023/01/26 06:52:46;;;;;;;17.92;9.80;;;;;;;;;;5011268;28;20457;-48
2023/01/26 06:55:21;;;;;;;16.83;8.77;;;;;;;;;;5026273;28;20030;-50
2023/01/26 06:57:47;;;;;;;15.13;8.68;;;;;;;;;;5039272;28;20032;-49
2023/01/26 07:00:13;;;;;;;15.20;8.80;;;;;;;;;;5044125;28;20101;-49
2023/01/26 07:02:39;;;;;;;15.35;8.52;;;;;;;;;;5028168;28;20025;-51
2023/01/26 07:05:06;;;;;;;13.98;8.27;;;;;;;;;;5030216;28;20089;-49
2023/01/26 07:07:32;;;;;;;13.38;7.80;;;;;;;;;;5029648;28;20535;-49
2023/01/26 07:09:58;;;;;;;12.35;7.25;;;;;;;;;;5030037;28;20034;-51
2023/01/26 07:12:24;;;;;;;11.90;7.20;;;;;;;;;;5045044;28;20036;-49
2023/01/26 07:14:50;;;;;;;14.70;7.80;;;;;;;;;;5050196;28;20036;-48
2023/01/26 07:17:17;;;;;;;13.15;7.50;;;;;;;;;;5050666;28;20066;-48
2023/01/26 07:19:44;;;;;;;13.18;7.57;;;;;;;;;;5050031;28;20025;-47
2023/01/26 07:22:10;;;;;;;11.05;6.53;;;;;;;;;;5049534;28;20496;-49
2023/01/26 07:24:36;;;;;;;13.63;7.93;;;;;;;;;;5052042;28;20548;-51
2023/01/26 07:27:02;;;;;;;15.40;8.07;;;;;;;;;;5056659;28;20033;-49
2023/01/26 07:29:28;;;;;;;14.18;7.75;;;;;;;;;;5050617;28;20415;-51
2023/01/26 07:31:54;;;;;;;14.13;7.80;;;;;;;;;;5050638;28;20021;-50
2023/01/26 07:34:20;;;;;;;13.43;7.53;;;;;;;;;;5050737;28;20040;-48
2023/01/26 07:36:46;;;;;;;14.55;8.15;;;;;;;;;;5050699;28;20025;-49
2023/01/26 07:39:12;;;;;;;14.70;8.00;;;;;;;;;;5049186;28;20685;-48
2023/01/26 07:41:38;;;;;;;14.77;7.97;;;;;;;;;;5052094;28;20074;-48
2023/01/26 07:44:08;;;;;;;14.73;8.40;;;;;;;;;;5058580;28;20032;-48
2023/01/26 07:46:35;;;;;;;15.05;8.40;;;;;;;;;;5054415;28;20083;-48
2023/01/26 07:49:01;;;;;;;13.82;8.07;;;;;;;;;;5049931;28;20119;-47
2023/01/26 07:51:27;;;;;;;12.98;7.63;;;;;;;;;;5049475;28;20116;-48
2023/01/26 07:53:53;;;;;;;13.57;7.47;;;;;;;;;;5049260;28;20029;-48
2023/01/26 07:56:19;;;;;;;14.35;8.20;;;;;;;;;;5049713;28;20226;-51
2023/01/26 07:58:48;;;;;;;14.70;8.38;;;;;;;;;;5049172;28;20025;-51
2023/01/26 08:01:14;;;;;;;13.13;7.57;;;;;;;;;;5049096;28;20036;-48
2023/01/26 08:03:41;;;;;;;12.90;7.70;;;;;;;;;;5049542;28;20036;-49
2023/01/26 08:06:08;;;;;;;13.00;7.68;;;;;;;;;;5068469;28;20086;-51
2023/01/26 08:08:34;;;;;;;13.95;7.35;;;;;;;;;;5050943;28;20043;-49
2023/01/26 08:11:00;;;;;;;14.35;7.82;;;;;;;;;;5047941;28;20025;-52
2023/01/26 08:13:28;;;;;;;13.63;7.57;;;;;;;;;;5046558;28;20033;-52
2023/01/26 08:15:54;;;;;;;13.65;7.40;;;;;;;;;;5045852;28;20021;-49
2023/01/26 08:18:21;;;;;;;14.00;7.75;;;;;;;;;;5046244;28;20028;-48
2023/01/26 08:20:51;;;;;;;12.77;7.50;;;;;;;;;;5046476;28;20565;-50
2023/01/26 08:23:17;;;;;;;13.85;8.10;;;;;;;;;;5046667;28;20029;-49
2023/01/26 08:25:43;;;;;;;15.35;8.15;;;;;;;;;;5046790;28;20025;-49
2023/01/26 08:28:09;;;;;;;11.55;7.05;;;;;;;;;;5045678;28;20090;-52
2023/01/26 08:30:35;;;;;;;13.65;8.07;;;;;;;;;;5046040;28;20025;-49
2023/01/26 08:33:02;;;;;;;13.27;7.80;;;;;;;;;;5045832;28;20502;-49
2023/01/26 08:35:28;;;;;;;13.02;7.55;;;;;;;;;;5045609;28;20093;-52
2023/01/26 08:37:54;;;;;;;13.68;7.47;;;;;;;;;;5046058;28;20385;-50
2023/01/26 08:40:21;;;;;;;11.88;7.40;;;;;;;;;;5045745;28;20047;-49
2023/01/26 08:42:47;;;;;;;11.75;6.75;;;;;;;;;;5046145;28;20053;-49
2023/01/26 08:45:13;;;;;;;13.40;7.63;;;;;;;;;;5046197;28;20064;-48
2023/01/26 08:47:38;;;;;;;12.43;7.10;;;;;;;;;;5045682;28;20029;-49
2023/01/26 08:50:05;;;;;;;14.80;7.55;;;;;;;;;;5045272;28;20029;-50
2023/01/26 08:52:31;;;;;;;11.88;7.22;;;;;;;;;;5045295;28;20033;-49
2023/01/26 08:54:57;;;;;;;12.45;7.53;;;;;;;;;;5045445;28;20039;-48
2023/01/26 08:57:24;;;;;;;12.90;7.40;;;;;;;;;;5044803;28;20020;-48
2023/01/26 08:59:50;;;;;;;12.02;7.05;;;;;;;;;;5045450;28;20404;-47
2023/01/26 09:02:16;;;;;;;15.15;8.07;;;;;;;;;;5045780;28;20033;-48
2023/01/26 09:04:41;;;;;;;17.25;7.68;;;;;;;;;;5045167;28;20029;-49
2023/01/26 09:07:08;;;;;;;12.90;6.95;;;;;;;;;;5045250;28;20061;-50
2023/01/26 09:09:34;;;;;;;10.38;6.88;;;;;;;;;;5045358;28;20032;-49
2023/01/26 09:12:00;;;;;;;13.75;8.02;;;;;;;;;;5033758;28;20205;-51
2023/01/26 09:14:27;;;;;;;12.30;7.30;;;;;;;;;;5025466;28;20035;-48
2023/01/26 09:16:53;;;;;;;14.02;7.60;;;;;;;;;;5025315;28;20021;-48
2023/01/26 09:19:19;;;;;;;13.10;7.32;;;;;;;;;;5025267;28;20029;-50
2023/01/26 09:21:45;;;;;;;12.98;8.00;;;;;;;;;;5026013;28;20487;-51
2023/01/26 09:24:12;;;;;;;15.27;8.18;;;;;;;;;;5025258;28;20112;-47
2023/01/26 09:26:38;;;;;;;12.32;7.20;;;;;;;;;;5025192;28;20037;-47
2023/01/26 09:29:04;;;;;;;13.60;7.40;;;;;;;;;;5025779;28;20048;-52
2023/01/26 09:31:31;;;;;;;12.32;7.10;;;;;;;;;;5025056;28;20048;-52
2023/01/26 09:33:57;;;;;;;12.43;6.88;;;;;;;;;;5025014;28;20033;-52
2023/01/26 09:36:23;;;;;;;11.32;6.78;;;;;;;;;;5025311;28;20109;-49
2023/01/26 09:38:50;;;;;;;13.82;7.57;;;;;;;;;;5025324;28;20029;-49
2023/01/26 09:41:34;;;;;;;11.70;6.97;;;;;;;;;;5025471;28;20104;-48
2023/01/26 09:44:04;;;;;;;12.48;6.72;;;;;;;;;;5025088;28;20025;-51
2023/01/26 09:46:50;;;;;;;12.25;6.90;;;;;;;;;;5025053;28;20544;-49
2023/01/26 09:49:16;;;;;;;12.32;6.57;;;;;;;;;;4985165;28;20297;-52
2023/01/26 09:51:45;;;;;;;11.73;6.72;;;;;;;;;;5025161;28;20033;-51
2023/01/26 09:54:15;;;;;;;11.80;6.43;;;;;;;;;;5024973;28;20475;-48
2023/01/26 09:56:42;;;;;;;12.85;7.05;;;;;;;;;;5024548;28;20507;-47
2023/01/26 09:59:35;;;;;;;10.50;6.72;;;;;;;;;;5025054;28;20017;-52
2023/01/26 10:02:22;;;;;;;11.35;7.03;;;;;;;;;;5021369;28;20048;-51
2023/01/26 10:04:52;;;;;;;13.00;7.05;;;;;;;;;;5024843;28;20420;-51
2023/01/26 10:07:18;;;;;;;12.35;6.78;;;;;;;;;;5025432;28;20103;-49
2023/01/26 10:09:46;;;;;;;10.63;6.45;;;;;;;;;;5027606;28;20450;-49
2023/01/26 10:12:18;;;;;;;12.80;7.13;;;;;;;;;;5041382;28;20068;-50
2023/01/26 10:14:46;;;;;;;14.52;8.07;;;;;;;;;;5047987;28;20074;-49
2023/01/26 10:17:17;;;;;;;12.00;6.82;;;;;;;;;;5048629;28;20078;-52
2023/01/26 10:19:45;;;;;;;12.80;7.07;;;;;;;;;;5048485;28;20092;-52
2023/01/26 10:22:15;;;;;;;12.15;6.70;;;;;;;;;;5048097;28;20090;-53
2023/01/26 10:24:42;;;;;;;13.25;7.63;;;;;;;;;;5046892;28;20503;-49
2023/01/26 10:27:12;;;;;;;11.95;7.28;;;;;;;;;;5048217;28;20035;-48
2023/01/26 10:29:38;;;;;;;12.98;7.32;;;;;;;;;;5048205;28;20047;-51
2023/01/26 10:32:06;;;;;;;10.88;6.25;;;;;;;;;;5047799;28;20492;-52
2023/01/26 10:34:32;;;;;;;11.13;7.13;;;;;;;;;;5048186;28;20504;-50
2023/01/26 10:37:30;;;;;;;10.77;5.55;;;;;;;;;;5048996;28;20234;-48
2023/01/26 10:39:57;;;;;;;11.50;6.57;;;;;;;;;;5004362;28;20277;-52
2023/01/26 10:42:27;;;;;;;12.30;6.57;;;;;;;;;;5047654;28;20519;-50
2023/01/26 10:44:53;;;;;;;11.07;6.43;;;;;;;;;;5047941;28;20331;-47
2023/01/26 10:47:20;;;;;;;10.15;5.85;;;;;;;;;;5047898;28;20024;-49
2023/01/26 10:49:47;;;;;;;11.18;6.25;;;;;;;;;;5048215;28;20115;-50
2023/01/26 10:52:20;;;;;;;10.85;6.18;;;;;;;;;;5047731;28;20036;-50
2023/01/26 10:54:47;;;;;;;10.23;6.50;;;;;;;;;;5047760;28;20196;-49
2023/01/26 10:57:20;;;;;;;11.93;7.18;;;;;;;;;;5047489;28;20091;-52
2023/01/26 10:59:51;;;;;;;16.73;8.93;;;;;;;;;;5047938;28;20021;-52
2023/01/26 11:02:21;;;;;;;17.55;9.55;;;;;;;;;;5047517;28;20519;-48
2023/01/26 11:05:06;;;;;;;13.75;8.25;;;;;;;;;;5047900;28;20037;-48
2023/01/26 11:07:39;;;;;;;15.30;8.45;;;;;;;;;;5047440;28;20514;-50
2023/01/26 11:10:24;;;;;;;14.90;8.25;;;;;;;;;;5047333;28;20040;-50
2023/01/26 11:12:50;;;;;;;15.77;8.52;;;;;;;;;;5029533;28;20451;-51
2023/01/26 11:15:24;;;;;;;14.38;8.73;;;;;;;;;;5027497;28;20404;-51
2023/01/26 11:17:57;;;;;;;17.58;8.88;;;;;;;;;;5027469;28;20408;-51
2023/01/26 11:20:35;;;;;;;14.32;8.15;;;;;;;;;;5027021;28;20025;-48
2023/01/26 11:23:08;;;;;;;14.93;8.38;;;;;;;;;;5027160;28;20076;-49
2023/01/26 11:25:38;;;;;;;12.63;8.32;;;;;;;;;;5028061;28;20022;-51
2023/01/26 11:28:19;;;;;;;12.60;7.28;;;;;;;;;;5027292;28;20026;-49
2023/01/26 11:30:51;;;;;;;11.88;6.95;;;;;;;;;;5026459;28;20068;-47
2023/01/26 11:33:17;;;;;;;13.25;7.55;;;;;;;;;;5028343;28;20055;-52
2023/01/26 11:36:01;;;;;;;12.77;7.07;;;;;;;;;;5028375;28;20531;-51
2023/01/26 11:38:41;;;;;;;10.60;5.78;;;;;;;;;;5029329;28;20040;-52
2023/01/26 11:41:17;;;;;;;11.02;6.38;;;;;;;;;;5027807;28;20033;-49
2023/01/26 11:44:04;;;;;;;11.73;6.32;;;;;;;;;;5028504;28;20029;-50
2023/01/26 11:46:33;;;;;;;9.30;5.75;;;;;;;;;;5028131;28;20033;-49
2023/01/26 11:49:08;;;;;;;11.20;6.22;;;;;;;;;;5028144;28;20068;-48
2023/01/26 11:51:50;;;;;;;11.13;6.68;;;;;;;;;;5027583;28;20037;-48
2023/01/26 11:54:22;;;;;;;11.20;6.35;;;;;;;;;;5028171;28;20883;-48
2023/01/26 11:56:49;;;;;;;9.98;5.75;;;;;;;;;;5027831;28;20116;-51
2023/01/26 11:59:21;;;;;;;9.23;5.75;;;;;;;;;;5027730;28;20021;-48
2023/01/26 12:01:59;;;;;;;12.15;6.00;;;;;;;;;;5008454;28;20131;-50
2023/01/26 12:04:27;;;;;;;9.45;5.45;;;;;;;;;;5008386;28;20041;-50
2023/01/26 12:07:06;;;;;;;10.10;5.45;;;;;;;;;;5016590;28;20041;-51
2023/01/26 12:09:38;;;;;;;11.02;6.40;;;;;;;;;;5028014;28;20110;-50
2023/01/26 12:12:23;;;;;;;12.20;6.57;;;;;;;;;;5037756;28;20085;-48
2023/01/26 12:14:55;;;;;;;11.52;6.40;;;;;;;;;;5038074;28;20059;-48
2023/01/26 12:17:27;;;;;;;9.45;5.85;;;;;;;;;;5047569;28;20025;-50
2023/01/26 12:20:03;;;;;;;10.05;5.72;;;;;;;;;;5047162;28;20055;-51
2023/01/26 12:22:32;;;;;;;8.95;5.55;;;;;;;;;;5047199;28;20558;-49
2023/01/26 12:25:03;;;;;;;8.52;5.38;;;;;;;;;;5045629;28;20470;-49
2023/01/26 12:27:38;;;;;;;10.93;5.72;;;;;;;;;;5046401;28;20025;-51
2023/01/26 12:30:14;;;;;;;12.00;6.47;;;;;;;;;;5046818;28;20107;-50
2023/01/26 12:32:40;;;;;;;11.20;6.20;;;;;;;;;;5037698;28;20025;-49
2023/01/26 12:35:10;;;;;;;10.77;6.15;;;;;;;;;;5046409;28;20037;-51
2023/01/26 12:37:46;;;;;;;12.93;7.05;;;;;;;;;;5047203;28;20238;-50
2023/01/26 12:40:22;;;;;;;11.88;6.50;;;;;;;;;;5046511;28;20086;-49
2023/01/26 12:42:48;;;;;;;11.85;6.60;;;;;;;;;;5045425;28;20061;-47
2023/01/26 12:45:23;;;;;;;12.18;6.40;;;;;;;;;;5045839;28;20488;-47
2023/01/26 12:47:55;;;;;;;11.52;5.97;;;;;;;;;;5046261;28;20028;-51
2023/01/26 12:50:21;;;;;;;12.13;6.93;;;;;;;;;;5043152;28;20025;-49
2023/01/26 12:52:50;;;;;;;13.57;7.53;;;;;;;;;;5045755;28;20770;-50
2023/01/26 12:55:20;;;;;;;12.00;6.45;;;;;;;;;;5043875;28;20090;-49
2023/01/26 12:58:03;;;;;;;11.25;6.70;;;;;;;;;;5042891;28;20021;-50
2023/01/26 13:00:33;;;;;;;11.07;6.47;;;;;;;;;;5043987;28;20043;-51
2023/01/26 13:03:05;;;;;;;11.98;6.32;;;;;;;;;;5044109;28;20017;-52
2023/01/26 13:05:33;;;;;;;10.80;6.18;;;;;;;;;;5043803;28;20385;-49
2023/01/26 13:08:18;;;;;;;10.70;5.72;;;;;;;;;;5044010;28;20086;-49
2023/01/26 13:10:48;;;;;;;10.25;5.95;;;;;;;;;;5036956;28;20095;-49
2023/01/26 13:13:14;;;;;;;12.10;6.13;;;;;;;;;;5041747;28;20633;-49
2023/01/26 13:15:41;;;;;;;10.50;5.65;;;;;;;;;;5043997;28;20116;-50
2023/01/26 13:18:11;;;;;;;9.60;5.55;;;;;;;;;;5043756;28;20402;-48
2023/01/26 13:20:40;;;;;;;11.00;6.20;;;;;;;;;;5043632;28;20032;-50
2023/01/26 13:23:39;;;;;;;9.63;5.30;;;;;;;;;;5043639;28;20480;-49
2023/01/26 13:26:17;;;;;;;11.25;6.03;;;;;;;;;;4993852;28;20511;-50
2023/01/26 13:28:44;;;;;;;9.15;5.43;;;;;;;;;;5045872;28;20076;-49
2023/01/26 13:31:11;;;;;;;10.23;5.90;;;;;;;;;;5043389;28;20380;-52
2023/01/26 13:33:38;;;;;;;10.93;5.63;;;;;;;;;;5044688;28;20058;-49
2023/01/26 13:36:09;;;;;;;8.25;5.50;;;;;;;;;;5044280;28;20471;-52
2023/01/26 13:38:40;;;;;;;9.77;5.63;;;;;;;;;;5045247;28;20400;-51
2023/01/26 13:41:07;;;;;;;9.25;5.40;;;;;;;;;;5023106;28;20029;-48
2023/01/26 13:43:39;;;;;;;10.27;5.57;;;;;;;;;;5059339;28;20028;-51
2023/01/26 13:46:24;;;;;;;8.50;5.07;;;;;;;;;;5045889;28;20158;-50
2023/01/26 13:48:52;;;;;;;7.80;4.60;;;;;;;;;;5051341;28;20036;-49
2023/01/26 13:51:20;;;;;;;8.77;4.35;;;;;;;;;;5046180;28;20024;-50
2023/01/26 13:53:48;;;;;;;10.63;5.55;;;;;;;;;;5049802;28;20687;-53
2023/01/26 13:56:25;;;;;;;8.90;4.90;;;;;;;;;;5049647;28;20044;-49
2023/01/26 13:58:51;;;;;;;7.85;4.93;;;;;;;;;;5051814;28;20492;-48
2023/01/26 14:01:18;;;;;;;7.20;4.55;;;;;;;;;;5058701;28;20035;-51
2023/01/26 14:03:44;;;;;;;9.20;4.90;;;;;;;;;;5069513;28;20077;-53
2023/01/26 14:06:18;;;;;;;8.35;4.97;;;;;;;;;;5055544;28;20025;-51
2023/01/26 14:08:48;;;;;;;8.80;5.38;;;;;;;;;;5049403;28;20025;-53
2023/01/26 14:11:15;;;;;;;7.35;4.40;;;;;;;;;;5047284;28;20041;-47
2023/01/26 14:13:42;;;;;;;7.65;4.78;;;;;;;;;;5050199;28;20036;-48
2023/01/26 14:16:19;;;;;;;7.90;4.75;;;;;;;;;;5048072;28;20021;-48
2023/01/26 14:18:47;;;;;;;9.02;4.72;;;;;;;;;;5049290;28;20036;-48
2023/01/26 14:21:19;;;;;;;9.65;5.22;;;;;;;;;;5049484;28;20036;-48
2023/01/26 14:23:45;;;;;;;7.95;4.60;;;;;;;;;;5048931;28;20052;-52
2023/01/26 14:26:14;;;;;;;7.45;4.53;;;;;;;;;;5049525;28;20115;-49
2023/01/26 14:28:43;;;;;;;8.52;4.90;;;;;;;;;;5049598;28;20045;-48
2023/01/26 14:31:19;;;;;;;8.45;4.95;;;;;;;;;;5049431;28;20037;-49
2023/01/26 14:33:45;;;;;;;9.55;5.40;;;;;;;;;;5047850;28;20524;-50
2023/01/26 14:36:18;;;;;;;8.57;4.93;;;;;;;;;;5049769;28;20032;-52
2023/01/26 14:38:49;;;;;;;8.75;5.47;;;;;;;;;;5048473;28;20025;-51
2023/01/26 14:41:15;;;;;;;8.88;4.95;;;;;;;;;;5046286;28;20485;-52
2023/01/26 14:43:41;;;;;;;7.72;4.70;;;;;;;;;;5048723;28;20028;-50
2023/01/26 14:46:15;;;;;;;7.68;4.85;;;;;;;;;;5047779;28;20033;-48
2023/01/26 14:48:55;;;;;;;9.00;5.45;;;;;;;;;;5048984;28;20029;-49
2023/01/26 14:51:22;;;;;;;7.28;4.88;;;;;;;;;;5045275;28;20471;-49
2023/01/26 14:53:59;;;;;;;10.15;5.65;;;;;;;;;;5047483;28;20116;-51
2023/01/26 14:56:31;;;;;;;7.63;4.68;;;;;;;;;;5046695;28;20494;-48
2023/01/26 14:58:57;;;;;;;6.90;4.35;;;;;;;;;;5047805;28;20033;-50
2023/01/26 15:01:24;;;;;;;7.32;4.57;;;;;;;;;;5049117;28;20060;-48
2023/01/26 15:03:56;;;;;;;7.90;4.93;;;;;;;;;;5048163;28;20500;-48
2023/01/26 15:06:27;;;;;;;8.25;4.63;;;;;;;;;;5048461;28;20033;-51
2023/01/26 15:09:04;;;;;;;7.65;4.75;;;;;;;;;;5048426;28;20044;-49
2023/01/26 15:14:31;;;;;;;9.57;5.13;;;;;;;;;;5046504;28;20087;-48
2023/01/26 15:16:57;;;;;;;9.55;5.43;;;;;;;;;;5048575;28;20021;-50
2023/01/26 15:19:24;;;;;;;8.43;5.25;;;;;;;;;;5048673;28;20064;-50
2023/01/26 15:21:50;;;;;;;9.98;6.20;;;;;;;;;;5048417;28;20021;-50
2023/01/26 15:24:16;;;;;;;11.60;5.90;;;;;;;;;;5046726;28;20060;-50
2023/01/26 15:26:42;;;;;;;9.93;5.38;;;;;;;;;;5049140;28;20028;-49
2023/01/26 15:29:20;;;;;;;9.07;5.43;;;;;;;;;;5047478;28;20033;-50
2023/01/26 15:31:50;;;;;;;9.38;5.13;;;;;;;;;;5048524;28;20104;-49
2023/01/26 15:34:46;;;;;;;10.25;5.68;;;;;;;;;;5048090;28;20079;-49
2023/01/26 15:37:32;;;;;;;7.50;4.50;;;;;;;;;;5020364;28;20029;-49
2023/01/26 15:39:58;;;;;;;10.15;5.43;;;;;;;;;;5047455;28;20028;-48
2023/01/26 15:42:29;;;;;;;9.80;5.90;;;;;;;;;;5047910;28;20025;-48
2023/01/26 15:44:55;;;;;;;9.90;5.85;;;;;;;;;;5047409;28;20765;-51
2023/01/26 15:47:21;;;;;;;9.13;5.30;;;;;;;;;;5048320;28;20029;-47
2023/01/26 15:49:47;;;;;;;7.30;4.55;;;;;;;;;;5048311;28;20117;-49
2023/01/26 15:52:14;;;;;;;6.97;4.75;;;;;;;;;;5045738;28;20037;-52
2023/01/26 15:54:40;;;;;;;7.38;4.65;;;;;;;;;;5048866;28;20477;-51
2023/01/26 15:57:06;;;;;;;9.15;4.28;;;;;;;;;;5046708;28;20017;-53
2023/01/26 15:59:32;;;;;;;7.80;4.97;;;;;;;;;;5044431;28;20787;-50
2023/01/26 16:01:58;;;;;;;7.13;4.75;;;;;;;;;;5038556;28;20492;-51
2023/01/26 16:04:26;;;;;;;6.35;3.85;;;;;;;;;;5043443;28;20074;-49
2023/01/26 16:06:52;;;;;;;7.25;4.10;;;;;;;;;;5034545;28;20033;-50
2023/01/26 16:09:18;;;;;;;8.38;4.88;;;;;;;;;;5036490;28;20029;-51
2023/01/26 16:11:50;;;;;;;6.85;4.38;;;;;;;;;;5050947;28;20037;-51
2023/01/26 16:14:16;;;;;;;7.80;4.55;;;;;;;;;;5049641;28;20056;-52
2023/01/26 16:16:42;;;;;;;7.80;4.40;;;;;;;;;;5031345;28;20073;-48
2023/01/26 16:19:08;;;;;;;8.13;4.25;;;;;;;;;;5028206;28;20028;-51
2023/01/26 16:21:35;;;;;;;7.10;3.90;;;;;;;;;;5047778;28;20511;-52
2023/01/26 16:24:03;;;;;;;7.20;4.13;;;;;;;;;;5042732;28;20053;-49
2023/01/26 16:26:29;;;;;;;5.70;3.45;;;;;;;;;;5045091;28;20036;-53
2023/01/26 16:28:56;;;;;;;7.28;4.43;;;;;;;;;;5047244;28;20043;-49
2023/01/26 16:31:24;;;;;;;7.75;4.95;;;;;;;;;;5047763;28;20021;-48
2023/01/26 16:33:50;;;;;;;6.03;3.97;;;;;;;;;;5045964;28;20618;-51
2023/01/26 16:36:17;;;;;;;6.18;3.47;;;;;;;;;;5047685;28;20056;-49
2023/01/26 16:38:43;;;;;;;6.43;4.10;;;;;;;;;;5048066;28;20099;-52
2023/01/26 16:41:25;;;;;;;6.97;4.10;;;;;;;;;;5047933;28;20021;-50
2023/01/26 16:43:53;;;;;;;7.65;4.63;;;;;;;;;;5040529;28;20055;-51
2023/01/26 16:46:19;;;;;;;8.48;4.15;;;;;;;;;;5043481;28;20494;-49
2023/01/26 16:48:45;;;;;;;6.10;3.90;;;;;;;;;;5046707;28;20091;-52
2023/01/26 16:51:25;;;;;;;5.88;3.90;;;;;;;;;;5047384;28;20087;-51
2023/01/26 16:53:51;;;;;;;6.47;3.80;;;;;;;;;;5044935;28;20049;-50
2023/01/26 16:56:18;;;;;;;6.63;3.67;;;;;;;;;;5046553;28;20107;-49
2023/01/26 16:58:45;;;;;;;5.55;3.28;;;;;;;;;;5007739;28;20107;-48
2023/01/26 17:01:19;;;;;;;5.72;3.80;;;;;;;;;;5037319;28;20439;-49
2023/01/26 17:03:46;;;;;;;;;;;;;;;;;;5046802;28;20068;-48
2023/01/26 17:06:14;;;;;;;6.35;3.50;;;;;;;;;;5046366;28;19920;-49
2023/01/26 17:08:40;;;;;;;6.97;3.90;;;;;;;;;;5045790;28;20060;-52
2023/01/26 17:11:06;;;;;;;4.88;3.40;;;;;;;;;;5045932;28;20041;-50
2023/01/26 17:13:33;;;;;;;5.55;3.50;;;;;;;;;;5045404;28;20037;-50
2023/01/26 17:15:59;;;;;;;6.00;3.40;;;;;;;;;;5046554;28;20326;-49
2023/01/26 17:18:25;;;;;;;6.68;3.65;;;;;;;;;;5045667;28;20086;-50
2023/01/26 17:20:51;;;;;;;6.55;3.70;;;;;;;;;;5046264;28;20037;-49
2023/01/26 17:23:17;;;;;;;5.55;3.50;;;;;;;;;;5045908;28;20403;-51
2023/01/26 17:25:43;;;;;;;5.22;3.45;;;;;;;;;;5046829;28;20037;-50
2023/01/26 17:28:09;;;;;;;6.10;3.60;;;;;;;;;;5046360;28;20033;-53
2023/01/26 17:30:36;;;;;;;5.40;3.38;;;;;;;;;;5046313;28;20554;-53
2023/01/26 17:33:02;;;;;;;5.97;4.07;;;;;;;;;;5045763;28;20055;-52
2023/01/26 17:35:28;;;;;;;6.78;3.83;;;;;;;;;;5046107;28;20437;-51
2023/01/26 17:37:54;;;;;;;5.13;3.40;;;;;;;;;;5046311;28;20021;-52
2023/01/26 17:40:21;;;;;;;5.32;3.17;;;;;;;;;;5045912;28;20091;-48
2023/01/26 17:42:47;;;;;;;5.45;3.70;;;;;;;;;;5046253;28;20071;-49
2023/01/26 17:45:13;;;;;;;6.65;3.80;;;;;;;;;;5046907;28;20052;-53
2023/01/26 17:47:40;;;;;;;4.65;3.30;;;;;;;;;;5046597;28;20026;-51
2023/01/26 17:50:07;;;;;;;5.88;3.88;;;;;;;;;;5046074;28;20037;-50
2023/01/26 17:52:35;;;;;;;5.47;3.65;;;;;;;;;;5045094;28;20036;-53
2023/01/26 17:55:03;;;;;;;5.47;3.50;;;;;;;;;;5044850;28;20124;-49
2023/01/26 17:57:29;;;;;;;6.65;3.72;;;;;;;;;;5046324;28;20538;-50
2023/01/26 17:59:55;;;;;;;6.57;3.70;;;;;;;;;;5045933;28;20048;-50
2023/01/26 18:02:22;;;;;;;5.85;3.92;;;;;;;;;;5045312;28;20021;-48
2023/01/26 18:04:48;;;;;;;7.55;4.40;;;;;;;;;;5046057;28;20068;-49
2023/01/26 18:07:15;;;;;;;7.25;4.28;;;;;;;;;;5043712;28;20060;-49
2023/01/26 18:09:41;;;;;;;7.07;4.32;;;;;;;;;;5045188;28;20037;-50
2023/01/26 18:12:07;;;;;;;5.20;3.42;;;;;;;;;;5041727;28;20105;-49
2023/01/26 18:14:33;;;;;;;7.10;4.28;;;;;;;;;;5041967;28;20037;-51
2023/01/26 18:16:59;;;;;;;5.75;3.60;;;;;;;;;;5042174;28;20025;-50
2023/01/26 18:19:25;;;;;;;8.48;4.57;;;;;;;;;;5043324;28;20071;-48
2023/01/26 18:21:51;;;;;;;5.88;4.05;;;;;;;;;;5043517;28;20029;-47
2023/01/26 18:24:17;;;;;;;6.18;4.00;;;;;;;;;;5042478;28;20380;-48
2023/01/26 18:26:44;;;;;;;7.07;4.38;;;;;;;;;;5042775;28;20408;-49
2023/01/26 18:29:10;;;;;;;9.10;4.57;;;;;;;;;;5043638;28;20099;-48
2023/01/26 18:31:39;;;;;;;7.35;4.03;;;;;;;;;;5045253;28;20363;-48
2023/01/26 18:34:05;;;;;;;6.13;3.88;;;;;;;;;;5044514;28;20029;-48
2023/01/26 18:36:32;;;;;;;9.73;5.30;;;;;;;;;;5035492;28;20151;-49
2023/01/26 18:39:01;;;;;;;8.30;5.32;;;;;;;;;;5044070;28;20029;-46
2023/01/26 18:41:29;;;;;;;9.77;5.50;;;;;;;;;;5044427;28;20040;-47
2023/01/26 18:43:58;;;;;;;8.73;5.55;;;;;;;;;;5044914;28;20495;-48
2023/01/26 18:46:25;;;;;;;10.05;5.65;;;;;;;;;;5047521;28;20052;-47
2023/01/26 18:48:52;;;;;;;9.55;5.97;;;;;;;;;;5046136;28;20029;-47
2023/01/26 18:51:19;;;;;;;9.10;5.60;;;;;;;;;;5045346;28;20029;-47
2023/01/26 18:53:45;;;;;;;11.70;6.05;;;;;;;;;;5046453;28;20491;-48
2023/01/26 18:56:14;;;;;;;10.10;5.75;;;;;;;;;;5047511;28;20021;-49
2023/01/26 18:58:40;;;;;;;10.82;5.75;;;;;;;;;;5047147;28;20534;-48
2023/01/26 19:01:09;;;;;;;8.88;5.38;;;;;;;;;;5046077;28;20074;-50
2023/01/26 19:03:36;;;;;;;10.32;5.95;;;;;;;;;;5046805;28;20124;-46
2023/01/26 19:06:02;;;;;;;11.82;6.43;;;;;;;;;;5045632;28;20606;-51
2023/01/26 19:08:28;;;;;;;11.63;6.05;;;;;;;;;;5028175;28;20028;-50
2023/01/26 19:10:54;;;;;;;12.45;7.18;;;;;;;;;;5045727;28;20057;-47
2023/01/26 19:13:21;;;;;;;15.52;7.20;;;;;;;;;;5045404;28;20720;-51
2023/01/26 19:15:48;;;;;;;12.32;6.57;;;;;;;;;;5044637;28;20037;-48
2023/01/26 19:18:14;;;;;;;10.68;5.65;;;;;;;;;;5045345;28;20470;-46
2023/01/26 19:20:40;;;;;;;10.00;5.72;;;;;;;;;;5045124;28;20082;-48
2023/01/26 19:23:07;;;;;;;10.63;5.55;;;;;;;;;;5045406;28;20128;-47
2023/01/26 19:25:35;;;;;;;9.73;5.38;;;;;;;;;;5045584;28;20060;-49
2023/01/26 19:28:01;;;;;;;9.23;5.05;;;;;;;;;;5045676;28;20079;-50
2023/01/26 19:30:27;;;;;;;9.05;5.32;;;;;;;;;;5045921;28;20106;-48
2023/01/26 19:35:39;;;;;;;11.07;6.28;;;;;;;;;;5042389;28;20107;-48
2023/01/26 19:38:05;;;;;;;11.63;6.28;;;;;;;;;;5045100;28;20393;-48
2023/01/26 19:40:34;;;;;;;11.10;6.03;;;;;;;;;;5045229;28;20028;-48
2023/01/26 19:43:01;;;;;;;10.23;6.22;;;;;;;;;;5043603;28;20040;-48
2023/01/26 19:45:27;;;;;;;11.77;6.50;;;;;;;;;;5052372;28;20033;-47
2023/01/26 19:47:53;;;;;;;10.50;6.03;;;;;;;;;;5045392;28;20038;-47
2023/01/26 19:50:19;;;;;;;9.48;5.70;;;;;;;;;;5045103;28;20033;-49
2023/01/26 19:52:45;;;;;;;11.02;5.70;;;;;;;;;;5044586;28;20033;-47